Terminal Aerodrome Forecast
Issued by NWS Cleveland, OH

Home | Current Version | Previous Version | Text Only | Print | Product List | Glossary On
Versions: 1 2 3 4 5 6 7 8 9 10 11 12 13 14 15 16
000
FTUS41 KCLE 251700 CCA
TAFMFD
TAF COR
KMFD 251755Z 2518/2618 08010KT P6SM VCSH SCT060 OVC080
      TEMPO 2518/2520 6SM -RA BR BKN035
     FM252100 06010KT 6SM -RA BR OVC035
     FM260100 02007KT P6SM OVC080
     FM261500 36010KT P6SM SCT035=

USA.gov is the U.S. government's official web portal to all federal, state and local government web resources and services.